Aeroporto :
LOGIN :

Iscrizione | Disclaimer

   EN    FR    IT 

 










Sommario :    VFR   VFR Marginale   IFR   IFR Intensivo   IFR Molto Intensivo
Visibilità : 
Base nubi : 
>= 8 km
>= 3000ft
5 / 8 km
1000 / 3000 ft
1500m / 5 km
500 / 1000 ft
800 / 1500m
200 / 500 ft
< 800m
< 200 ft
Simboli :   Temporali  Nebbia  Neve Forte  Precipitazioni Forti  Vento > 20 kt
SIGMETs :   Varie  Temporali  Ghiacco  Turbolenza  Onda orograficha  Ceneri Vulcaniche






- Altitudine del aeroporto : 12 ft
- Codice IATA : CQF


LFAC - Calais

ULTIMO METAR :
  • 011200Z AUTO 01006KT 340V040 9999 BKN032 08/M00 Q1023

METARs OBSOLETI :
  • 011130Z AUTO 03007KT 340V060 9999 SCT031 09/01 Q1023
  • 011100Z AUTO 04005KT 350V100 9999 BKN028 BKN034 07/00 Q1023
  • 011030Z AUTO 05005KT 010V090 9999 SCT027 BKN032 08/02 Q1024
  • 011000Z AUTO 03005KT 320V080 9999 BKN030 08/01 Q1024
  • 010930Z AUTO 05005KT 360V100 9999 BKN029 08/01 Q1024

TAF N/A
ATIS : +33 3 21 00 11 14



MetMap, La meteo Aeronautica in un colpo d'occhio ! - Copyright ORBIFLY Dicembre 2007 - Disclaimer

ORBIFLY MET'MAP TEAM :

Programmazione e sviluppo : Alexandra Zaïnal
Concezione : Baudouin d'Aumeries
Aiuto per la programmazione : Marc-Olivier Méhu
Supporto tecnico e logistico : Manuel Goepfert
Aiuto per la traduzione : Arnaldo La Scala

Contatto : metmap@orbifly.com




FONTI E CREDITI :

   NOAA